createdAt,value
2023-02-27T00:00:51.946Z,30.72
2023-02-27T00:01:52.006Z,30.98
2023-02-27T00:02:52.059Z,29.85
2023-02-27T00:03:52.094Z,25.99
2023-02-27T00:04:52.161Z,27.60
2023-02-27T00:05:52.184Z,27.55
2023-02-27T00:06:51.213Z,30.33
2023-02-27T00:07:51.245Z,26.69
2023-02-27T00:08:52.402Z,27.37
2023-02-27T00:09:52.314Z,28.05
2023-02-27T00:10:51.410Z,25.00
2023-02-27T00:11:51.428Z,27.21
2023-02-27T00:12:52.435Z,29.50
2023-02-27T00:13:52.470Z,27.75
2023-02-27T00:14:52.508Z,27.34
2023-02-27T00:15:52.584Z,29.54
2023-02-27T00:16:52.762Z,31.37
2023-02-27T00:17:51.592Z,27.80
2023-02-27T00:18:52.628Z,32.94
2023-02-27T00:19:52.664Z,26.60
2023-02-27T00:20:51.723Z,26.40
2023-02-27T00:21:52.740Z,29.27
2023-02-27T00:22:51.807Z,28.76
2023-02-27T00:23:52.834Z,27.94
2023-02-27T00:24:52.839Z,29.77
2023-02-27T00:25:52.923Z,25.54
2023-02-27T00:26:52.955Z,26.18
2023-02-27T00:27:52.973Z,31.25
2023-02-27T00:28:52.029Z,29.72
2023-02-27T00:29:53.061Z,27.52
2023-02-27T00:30:53.103Z,30.20
2023-02-27T00:31:53.206Z,25.11
2023-02-27T00:32:53.112Z,28.49
2023-02-27T00:33:53.240Z,27.85
2023-02-27T00:34:53.250Z,26.70
2023-02-27T00:35:53.302Z,25.75
2023-02-27T00:36:53.285Z,28.15
2023-02-27T00:37:52.318Z,28.25
2023-02-27T00:38:53.380Z,30.13
2023-02-27T00:39:53.384Z,27.54
2023-02-27T00:40:53.476Z,27.55
2023-02-27T00:41:53.442Z,29.31
2023-02-27T00:42:53.494Z,25.42
2023-02-27T00:43:53.549Z,29.14
2023-02-27T00:44:53.568Z,30.72
2023-02-27T00:45:53.586Z,29.19
2023-02-27T00:46:52.679Z,32.98
2023-02-27T00:47:52.657Z,26.33
2023-02-27T00:48:53.713Z,31.71
2023-02-27T00:49:53.713Z,25.00
2023-02-27T00:50:53.824Z,28.90
2023-02-27T00:51:53.787Z,29.89
2023-02-27T00:52:53.816Z,28.50
2023-02-27T00:53:53.879Z,29.28
2023-02-27T00:54:53.888Z,30.88
2023-02-27T00:55:53.907Z,28.80
2023-02-27T00:56:54.006Z,28.71
2023-02-27T00:57:54.037Z,31.40
2023-02-27T00:58:53.022Z,27.85
2023-02-27T00:59:53.072Z,29.58
2023-02-27T01:00:54.134Z,28.88
2023-02-27T01:01:53.144Z,28.62
2023-02-27T01:02:53.257Z,25.25
2023-02-27T01:03:54.215Z,29.68
2023-02-27T01:04:53.269Z,26.22
2023-02-27T01:05:53.358Z,28.24
2023-02-27T01:06:54.347Z,26.80
2023-02-27T01:07:54.384Z,30.72
2023-02-27T01:08:54.426Z,27.25
2023-02-27T01:09:54.473Z,30.83
2023-02-27T01:10:54.521Z,31.02
2023-02-27T01:11:54.510Z,32.20
2023-02-27T01:12:53.558Z,25.00
2023-02-27T01:13:54.582Z,29.27
2023-02-27T01:14:53.644Z,31.64
2023-02-27T01:15:53.674Z,28.55
2023-02-27T01:16:54.715Z,27.96
2023-02-27T01:17:54.749Z,31.42
2023-02-27T01:18:54.791Z,29.16
2023-02-27T01:19:54.906Z,34.03
2023-02-27T01:20:54.881Z,28.37
2023-02-27T01:21:54.905Z,30.30
2023-02-27T01:22:54.971Z,30.89
2023-02-27T01:23:55.007Z,30.88
2023-02-27T01:24:55.067Z,28.60
2023-02-27T01:25:55.081Z,30.34
2023-02-27T01:26:55.151Z,27.55
2023-02-27T01:27:54.183Z,29.20
2023-02-27T01:28:55.216Z,30.57
2023-02-27T01:29:55.253Z,27.40
2023-02-27T01:30:55.379Z,29.94
2023-02-27T01:31:55.414Z,33.25
2023-02-27T01:32:55.422Z,32.28
2023-02-27T01:33:55.484Z,30.07
2023-02-27T01:34:55.461Z,28.45
2023-02-27T01:35:55.512Z,28.54
2023-02-27T01:36:55.558Z,32.02
2023-02-27T01:37:54.570Z,29.87
2023-02-27T01:38:54.611Z,28.93
2023-02-27T01:39:55.659Z,28.76
2023-02-27T01:40:54.701Z,29.16
2023-02-27T01:41:55.840Z,28.18
2023-02-27T01:42:55.827Z,28.76
2023-02-27T01:43:55.871Z,27.13
2023-02-27T01:44:55.860Z,29.91
2023-02-27T01:45:55.939Z,28.73
2023-02-27T01:46:55.965Z,27.96
2023-02-27T01:47:56.039Z,30.13
2023-02-27T01:48:56.022Z,27.64
2023-02-27T01:49:56.052Z,28.10
2023-02-27T01:52:14.251Z,25.00
2023-02-27T01:53:15.287Z,25.00
2023-02-27T01:54:15.241Z,25.00
2023-02-27T01:55:15.225Z,25.00
2023-02-27T01:56:15.208Z,25.00
2023-02-27T01:57:15.266Z,27.74
2023-02-27T01:58:15.228Z,29.10
2023-02-27T01:59:15.192Z,28.59
2023-02-27T02:00:15.187Z,24.84
2023-02-27T02:01:14.212Z,27.38
2023-02-27T02:02:15.220Z,28.40
2023-02-27T02:03:15.205Z,29.15
2023-02-27T02:04:15.264Z,26.83
2023-02-27T02:05:15.323Z,28.55
2023-02-27T02:06:15.365Z,26.93
2023-02-27T02:07:15.374Z,26.05
2023-02-27T02:08:15.426Z,26.61
2023-02-27T02:09:14.471Z,31.78
2023-02-27T02:10:14.514Z,29.05
2023-02-27T02:11:15.569Z,28.38
2023-02-27T02:12:15.643Z,28.34
2023-02-27T02:13:15.662Z,26.74
2023-02-27T02:14:15.764Z,28.38
2023-02-27T02:15:15.770Z,31.14
2023-02-27T02:16:15.808Z,29.07
2023-02-27T02:17:15.890Z,30.02
2023-02-27T02:18:15.952Z,28.96
2023-02-27T02:19:14.951Z,29.54
2023-02-27T02:20:16.013Z,29.70
2023-02-27T02:21:16.058Z,27.80
2023-02-27T02:22:16.092Z,28.08
2023-02-27T02:23:15.134Z,26.96
2023-02-27T02:24:16.216Z,29.72
2023-02-27T02:25:16.243Z,27.91
2023-02-27T02:26:16.268Z,27.80
2023-02-27T02:27:16.310Z,30.66
2023-02-27T02:28:16.356Z,29.37
2023-02-27T02:29:15.410Z,32.88
2023-02-27T02:30:16.460Z,27.91
2023-02-27T02:31:16.627Z,27.03
2023-02-27T02:32:16.579Z,28.53
2023-02-27T02:33:16.584Z,28.53
2023-02-27T02:34:16.641Z,28.40
2023-02-27T02:35:15.692Z,27.98
2023-02-27T02:36:15.744Z,27.72
2023-02-27T02:37:16.808Z,27.45
2023-02-27T02:38:16.831Z,30.20
2023-02-27T02:39:15.884Z,31.03
2023-02-27T02:40:16.974Z,26.40
2023-02-27T02:41:17.004Z,30.99
2023-02-27T02:42:16.073Z,29.70
2023-02-27T02:43:17.109Z,29.34
2023-02-27T02:44:17.166Z,30.61
2023-02-27T02:45:17.179Z,28.39
2023-02-27T02:46:17.326Z,27.26
2023-02-27T02:47:17.262Z,27.78
2023-02-27T02:48:17.322Z,30.34
2023-02-27T02:49:17.419Z,32.26
2023-02-27T02:51:35.619Z,25.00
2023-02-27T02:52:36.603Z,25.00
2023-02-27T02:53:37.588Z,25.00
2023-02-27T02:54:36.556Z,25.00
2023-02-27T02:55:35.543Z,25.00
2023-02-27T02:56:35.546Z,27.71
2023-02-27T02:57:35.618Z,26.95
2023-02-27T02:58:49.590Z,25.00
2023-02-27T02:59:35.579Z,25.53
2023-02-27T03:00:36.578Z,26.03
2023-02-27T03:01:35.595Z,26.49
2023-02-27T03:02:36.530Z,27.58
2023-02-27T03:03:36.506Z,26.82
2023-02-27T03:04:36.577Z,26.33
2023-02-27T03:05:36.514Z,30.56
2023-02-27T03:06:36.489Z,28.91
2023-02-27T03:07:36.541Z,29.22
2023-02-27T03:08:36.518Z,28.39
2023-02-27T03:10:54.682Z,25.00
2023-02-27T03:11:54.667Z,25.00
2023-02-27T03:12:55.669Z,25.00
2023-02-27T03:13:55.674Z,25.00
2023-02-27T03:14:55.652Z,25.00
2023-02-27T03:15:55.724Z,26.48
2023-02-27T03:16:54.654Z,30.27
2023-02-27T03:17:54.615Z,27.61
2023-02-27T03:18:55.617Z,28.39
2023-02-27T03:19:55.641Z,27.74
2023-02-27T03:20:55.675Z,27.99
2023-02-27T03:21:55.587Z,27.54
2023-02-27T03:22:55.588Z,29.30
2023-02-27T03:23:54.576Z,28.23
2023-02-27T03:24:55.587Z,27.75
2023-02-27T03:25:57.891Z,28.99
2023-02-27T03:26:54.643Z,30.92
2023-02-27T03:27:55.639Z,26.37
2023-02-27T03:28:54.637Z,26.67
2023-02-27T03:29:55.628Z,25.00
2023-02-27T03:30:55.720Z,28.06
2023-02-27T03:31:55.704Z,32.98
2023-02-27T03:32:54.627Z,26.89
2023-02-27T03:33:55.579Z,27.38
2023-02-27T03:34:55.584Z,29.99
2023-02-27T03:35:55.596Z,32.39
2023-02-27T03:36:55.579Z,30.17
2023-02-27T03:37:54.546Z,27.88
2023-02-27T03:38:55.538Z,30.88
2023-02-27T03:39:55.617Z,28.24
2023-02-27T03:40:54.538Z,32.24
2023-02-27T03:41:55.526Z,29.94
2023-02-27T03:42:55.514Z,34.14
2023-02-27T03:43:55.508Z,33.01
2023-02-27T03:44:55.502Z,28.68
2023-02-27T03:45:55.488Z,25.47
2023-02-27T03:46:55.478Z,35.34
2023-02-27T03:47:54.491Z,31.14
2023-02-27T03:48:55.488Z,28.16
2023-02-27T03:49:54.482Z,31.44
2023-02-27T03:50:55.471Z,27.87
2023-02-27T03:51:55.450Z,30.17
2023-02-27T03:52:55.435Z,34.36
2023-02-27T03:53:54.447Z,29.77
2023-02-27T03:54:55.532Z,28.27
2023-02-27T03:55:55.579Z,29.65
2023-02-27T03:56:55.640Z,30.27
2023-02-27T03:57:54.651Z,27.51
2023-02-27T03:58:55.743Z,29.87
2023-02-27T03:59:54.747Z,30.97
2023-02-27T04:00:55.818Z,29.51
2023-02-27T04:01:55.932Z,31.33
2023-02-27T04:02:55.991Z,32.85
2023-02-27T04:03:55.960Z,27.87
2023-02-27T04:04:56.044Z,27.24
2023-02-27T04:05:55.167Z,33.20
2023-02-27T04:06:55.131Z,27.62
2023-02-27T04:07:55.196Z,30.36
2023-02-27T04:08:56.237Z,32.03
2023-02-27T04:09:56.292Z,26.35
2023-02-27T04:10:56.389Z,29.52
2023-02-27T04:11:56.390Z,27.74
2023-02-27T04:12:56.425Z,31.53
2023-02-27T04:13:56.499Z,28.61
2023-02-27T04:14:56.531Z,32.25
2023-02-27T04:15:56.678Z,29.96
2023-02-27T04:16:56.675Z,29.29
2023-02-27T04:17:56.672Z,29.80
2023-02-27T04:18:57.009Z,31.84
2023-02-27T04:19:56.803Z,34.59
2023-02-27T04:20:56.883Z,30.03
2023-02-27T04:21:55.903Z,32.90
2023-02-27T04:22:56.930Z,32.70
2023-02-27T04:23:55.981Z,30.84
2023-02-27T04:24:57.059Z,30.61
2023-02-27T04:25:57.162Z,33.77
2023-02-27T04:26:57.166Z,31.71
2023-02-27T04:27:57.224Z,29.14
2023-02-27T04:28:57.326Z,32.89
2023-02-27T04:29:57.323Z,30.08
2023-02-27T04:30:57.449Z,29.27
2023-02-27T04:31:57.636Z,31.45
2023-02-27T04:32:57.474Z,31.23
2023-02-27T04:33:57.524Z,29.73
2023-02-27T04:34:57.565Z,31.64
2023-02-27T04:35:57.650Z,32.92
2023-02-27T04:36:57.868Z,27.88
2023-02-27T04:37:57.703Z,27.10
2023-02-27T04:38:57.812Z,30.58
2023-02-27T04:39:58.389Z,32.50
2023-02-27T04:40:57.899Z,32.14
2023-02-27T04:41:57.918Z,31.23
2023-02-27T04:42:57.979Z,29.25
2023-02-27T04:43:57.043Z,30.49
2023-02-27T04:44:57.095Z,29.74
2023-02-27T04:45:57.220Z,28.52
2023-02-27T04:46:58.202Z,33.39
2023-02-27T04:47:58.267Z,31.35
2023-02-27T04:48:58.306Z,33.91
2023-02-27T04:49:58.347Z,32.90
2023-02-27T04:50:58.423Z,28.91
2023-02-27T04:51:58.491Z,34.45
2023-02-27T04:52:57.514Z,30.57
2023-02-27T04:53:58.555Z,30.85
2023-02-27T04:54:57.614Z,33.61
2023-02-27T04:55:58.696Z,28.71
2023-02-27T04:56:58.733Z,30.53
2023-02-27T04:57:58.785Z,29.87
2023-02-27T04:58:58.844Z,31.30
2023-02-27T04:59:58.876Z,30.19
2023-02-27T05:00:59.048Z,35.48
2023-02-27T05:01:58.199Z,34.73
2023-02-27T05:02:59.140Z,28.96
2023-02-27T05:04:00.380Z,33.50
2023-02-27T05:04:59.156Z,30.82
2023-02-27T05:05:58.259Z,33.90
2023-02-27T05:06:59.298Z,31.68
2023-02-27T05:07:59.345Z,30.87
2023-02-27T05:08:59.372Z,33.54
2023-02-27T05:09:58.427Z,36.43
2023-02-27T05:10:59.490Z,29.19
2023-02-27T05:11:59.520Z,31.68
2023-02-27T05:12:59.660Z,31.62
2023-02-27T05:13:59.630Z,29.68
2023-02-27T05:14:59.729Z,30.30
2023-02-27T05:15:59.949Z,29.10
2023-02-27T05:16:58.795Z,29.99
2023-02-27T05:17:59.933Z,29.52
2023-02-27T05:18:59.930Z,33.26
2023-02-27T05:19:59.937Z,34.10
2023-02-27T05:21:00.025Z,32.14
2023-02-27T05:22:00.122Z,31.66
2023-02-27T05:22:59.102Z,30.81
2023-02-27T05:24:00.266Z,30.28
2023-02-27T05:25:00.193Z,30.34
2023-02-27T05:25:59.281Z,30.57
2023-02-27T05:27:00.327Z,33.46
2023-02-27T05:27:59.380Z,32.92
2023-02-27T05:29:00.426Z,29.47
2023-02-27T05:30:00.500Z,31.07
2023-02-27T05:31:00.568Z,29.83
2023-02-27T05:32:00.671Z,32.85
2023-02-27T05:33:00.648Z,29.85
2023-02-27T05:33:59.680Z,33.04
2023-02-27T05:35:00.735Z,33.48
2023-02-27T05:35:59.821Z,29.98
2023-02-27T05:37:00.924Z,30.03
2023-02-27T05:38:00.923Z,27.89
2023-02-27T05:39:00.961Z,31.66
2023-02-27T05:40:01.039Z,29.49
2023-02-27T05:41:01.067Z,28.39
2023-02-27T05:42:00.146Z,30.13
2023-02-27T05:43:00.191Z,32.31
2023-02-27T05:44:01.285Z,30.56
2023-02-27T05:45:01.296Z,29.46
2023-02-27T05:46:01.383Z,30.25
2023-02-27T05:47:01.425Z,31.89
2023-02-27T05:48:01.503Z,34.33
2023-02-27T05:49:01.530Z,30.48
2023-02-27T05:50:01.597Z,29.19
2023-02-27T05:51:01.677Z,30.34
2023-02-27T05:52:01.828Z,35.03
2023-02-27T05:53:01.769Z,34.97
2023-02-27T05:54:01.833Z,30.38
2023-02-27T05:55:01.894Z,31.10
2023-02-27T05:56:01.975Z,31.26
2023-02-27T05:57:02.009Z,28.79
2023-02-27T05:58:02.048Z,28.97
2023-02-27T05:59:02.108Z,32.16
2023-02-27T06:00:02.165Z,33.61
2023-02-27T06:01:01.259Z,29.82
2023-02-27T06:02:02.325Z,29.41
2023-02-27T06:03:02.385Z,32.07
2023-02-27T06:04:02.389Z,33.93
2023-02-27T06:05:02.494Z,29.73
2023-02-27T06:06:02.507Z,32.41
2023-02-27T06:07:02.560Z,30.84
2023-02-27T06:08:01.633Z,31.95
2023-02-27T06:09:02.656Z,34.06
2023-02-27T06:11:02.692Z,31.08
2023-02-27T06:12:02.724Z,30.96
2023-02-27T06:13:02.689Z,30.22
2023-02-27T06:14:02.684Z,32.02
2023-02-27T06:15:01.692Z,31.40
2023-02-27T06:16:02.667Z,30.77
2023-02-27T06:17:01.721Z,29.62
2023-02-27T06:18:01.649Z,31.04
2023-02-27T06:19:04.909Z,34.08
2023-02-27T06:20:01.628Z,32.09
2023-02-27T06:21:01.643Z,33.43
2023-02-27T06:22:01.617Z,30.02
2023-02-27T06:23:02.627Z,34.58
2023-02-27T06:24:02.625Z,33.02
2023-02-27T06:25:02.594Z,31.97
2023-02-27T06:26:02.597Z,33.86
2023-02-27T06:27:02.597Z,29.08
2023-02-27T06:28:02.599Z,31.58
2023-02-27T06:29:02.581Z,37.05
2023-02-27T06:30:02.552Z,33.30
2023-02-27T06:31:02.576Z,30.02
2023-02-27T06:32:01.568Z,33.88
2023-02-27T06:33:02.528Z,37.06
2023-02-27T06:34:01.522Z,37.89
2023-02-27T06:35:02.526Z,44.93
2023-02-27T06:36:02.521Z,47.54
2023-02-27T06:37:04.262Z,51.50
2023-02-27T06:38:01.488Z,59.86
2023-02-27T06:39:01.483Z,68.50
2023-02-27T06:40:02.469Z,74.66
2023-02-27T06:41:01.461Z,87.33
2023-02-27T06:42:02.445Z,91.99
2023-02-27T06:43:02.463Z,97.36
2023-02-27T06:44:01.469Z,98.99
2023-02-27T06:45:02.433Z,104.01
2023-02-27T06:46:02.530Z,108.27
2023-02-27T06:47:02.528Z,118.77
2023-02-27T06:48:01.432Z,127.21
2023-02-27T06:49:02.409Z,131.39
2023-02-27T06:50:01.414Z,137.06
2023-02-27T06:51:02.396Z,144.36
2023-02-27T06:52:02.379Z,146.46
2023-02-27T06:53:01.384Z,159.32
2023-02-27T06:54:01.372Z,166.03
2023-02-27T06:55:02.408Z,178.93
2023-02-27T06:56:02.369Z,191.80
2023-02-27T06:57:01.369Z,197.08
2023-02-27T06:58:02.347Z,199.69
2023-02-27T06:59:02.326Z,205.44
2023-02-27T07:00:02.354Z,218.67
2023-02-27T07:01:02.370Z,218.11
2023-02-27T07:02:02.305Z,230.34
2023-02-27T07:03:02.437Z,228.86
2023-02-27T07:04:02.300Z,230.38
2023-02-27T07:05:07.888Z,223.02
2023-02-27T07:06:02.278Z,166.76
2023-02-27T07:07:34.860Z,149.33
2023-02-27T07:08:02.262Z,155.73
2023-02-27T07:09:06.998Z,163.92
2023-02-27T07:10:02.270Z,172.51
2023-02-27T07:11:02.294Z,166.44
2023-02-27T07:12:01.222Z,175.27
2023-02-27T07:13:02.228Z,169.35
2023-02-27T07:14:02.206Z,178.89
2023-02-27T07:18:02.182Z,203.08
2023-02-27T07:19:02.180Z,210.60
2023-02-27T07:20:02.168Z,207.94
2023-02-27T07:21:02.161Z,221.71
2023-02-27T07:22:02.160Z,235.75
2023-02-27T07:30:02.100Z,248.11
2023-02-27T07:31:02.268Z,244.97
2023-02-27T07:32:02.140Z,249.73
2023-02-27T07:33:02.080Z,249.23
2023-02-27T07:34:02.058Z,249.19
2023-02-27T07:35:01.066Z,248.28
2023-02-27T07:36:02.089Z,248.34
2023-02-27T07:37:01.046Z,248.28
2023-02-27T07:38:02.069Z,249.40
2023-02-27T07:39:02.021Z,250.00
2023-02-27T07:40:02.028Z,249.79
2023-02-27T07:41:01.017Z,250.00
2023-02-27T07:42:01.997Z,248.96
2023-02-27T07:44:02.045Z,247.64
2023-02-27T07:45:01.983Z,248.59
2023-02-27T07:46:02.038Z,246.38
2023-02-27T07:47:02.011Z,248.83
2023-02-27T07:48:02.022Z,248.80
2023-02-27T07:49:01.955Z,248.99
2023-02-27T07:50:02.021Z,250.00
2023-02-27T07:51:02.081Z,247.99
2023-02-27T07:52:02.118Z,244.36
2023-02-27T07:53:02.461Z,247.74
2023-02-27T07:54:02.191Z,248.73
2023-02-27T07:55:02.284Z,247.98
2023-02-27T07:56:02.295Z,245.66
2023-02-27T07:57:02.345Z,245.48
2023-02-27T07:58:01.456Z,247.25
2023-02-27T07:59:02.454Z,246.86
2023-02-27T08:00:02.412Z,246.89
2023-02-27T08:01:02.446Z,245.97
2023-02-27T08:02:02.445Z,249.85
2023-02-27T08:03:02.524Z,246.85
2023-02-27T08:04:02.530Z,248.60
2023-02-27T08:05:02.530Z,249.56
2023-02-27T08:06:02.683Z,250.00
2023-02-27T08:08:02.512Z,249.83
2023-02-27T08:09:02.499Z,249.98
2023-02-27T08:10:02.506Z,248.09
2023-02-27T08:11:02.510Z,248.87
2023-02-27T08:12:02.522Z,247.17
2023-02-27T08:13:01.580Z,248.89
2023-02-27T08:14:03.301Z,249.05
2023-02-27T08:15:02.663Z,249.02
2023-02-27T08:16:02.748Z,248.00
2023-02-27T08:17:01.740Z,250.00
2023-02-27T08:18:02.755Z,248.62
2023-02-27T08:20:02.815Z,250.00
2023-02-27T08:21:02.860Z,246.23
2023-02-27T08:22:01.919Z,245.66
2023-02-27T08:23:02.982Z,249.57
2023-02-27T08:24:03.035Z,247.32
2023-02-27T08:25:03.089Z,248.30
2023-02-27T08:26:03.153Z,246.24
2023-02-27T08:27:03.218Z,248.10
2023-02-27T08:28:03.280Z,247.85
2023-02-27T08:29:03.333Z,247.03
2023-02-27T08:30:03.395Z,248.96
2023-02-27T08:31:03.524Z,249.01
2023-02-27T08:32:02.616Z,250.00
2023-02-27T08:33:03.586Z,250.00
2023-02-27T08:34:10.282Z,248.98
2023-02-27T08:35:03.646Z,249.08
2023-02-27T08:36:02.766Z,249.27
2023-02-27T08:37:02.637Z,248.00
2023-02-27T08:38:02.621Z,250.10
2023-02-27T08:39:03.617Z,251.43
2023-02-27T08:40:02.610Z,248.29
2023-02-27T08:41:02.602Z,246.71
2023-02-27T08:42:03.636Z,245.51
2023-02-27T08:43:03.615Z,244.84
2023-02-27T08:44:03.568Z,243.31
2023-02-27T08:45:03.573Z,244.05
2023-02-27T08:46:03.595Z,240.59
2023-02-27T08:47:03.547Z,241.61
2023-02-27T08:48:02.979Z,241.62
2023-02-27T08:49:03.535Z,240.28
2023-02-27T08:50:03.607Z,240.32
2023-02-27T08:51:03.527Z,237.72
2023-02-27T08:52:02.537Z,236.27
2023-02-27T08:53:03.976Z,235.87
2023-02-27T08:54:03.496Z,237.02
2023-02-27T08:55:03.484Z,238.92
2023-02-27T08:56:02.471Z,233.86
2023-02-27T08:57:03.468Z,232.31
2023-02-27T08:58:03.480Z,233.76
2023-02-27T08:59:03.460Z,230.59
2023-02-27T09:00:03.599Z,228.56
2023-02-27T09:01:03.510Z,231.19
2023-02-27T09:02:03.429Z,228.56
2023-02-27T09:03:03.482Z,226.95
2023-02-27T09:04:03.415Z,227.35
2023-02-27T09:05:02.406Z,224.52
2023-02-27T09:06:02.405Z,223.17
2023-02-27T09:07:03.392Z,223.41
2023-02-27T09:08:03.824Z,223.73
2023-02-27T09:09:02.389Z,222.21
2023-02-27T09:10:03.392Z,220.91
2023-02-27T09:11:03.379Z,218.82
2023-02-27T09:12:03.371Z,215.88
2023-02-27T09:13:02.383Z,218.28
2023-02-27T09:14:03.351Z,215.47
2023-02-27T09:15:03.346Z,217.25
2023-02-27T09:16:03.323Z,215.78
2023-02-27T09:17:03.326Z,213.63
2023-02-27T09:18:03.488Z,212.02
2023-02-27T09:19:03.329Z,214.20
2023-02-27T09:20:03.333Z,212.57
2023-02-27T09:21:03.373Z,209.17
2023-02-27T09:22:03.366Z,207.56
2023-02-27T09:23:03.391Z,205.14
2023-02-27T09:24:13.746Z,205.60
2023-02-27T09:25:03.400Z,205.72
2023-02-27T09:26:02.402Z,203.54
2023-02-27T09:27:03.383Z,202.07
2023-02-27T09:28:03.387Z,200.65
2023-02-27T09:29:03.359Z,199.97
2023-02-27T09:30:03.393Z,199.07
2023-02-27T09:31:03.356Z,199.33
2023-02-27T09:32:02.522Z,201.83
2023-02-27T09:33:03.490Z,193.64
2023-02-27T09:34:02.335Z,193.94
2023-02-27T09:35:03.327Z,192.03
2023-02-27T09:36:03.473Z,192.58
2023-02-27T09:37:03.308Z,190.68
2023-02-27T09:39:03.280Z,190.08
2023-02-27T09:40:03.300Z,188.12
2023-02-27T09:41:03.276Z,187.05
2023-02-27T09:42:03.280Z,187.91
2023-02-27T09:43:03.548Z,187.95
2023-02-27T09:44:02.257Z,184.54
2023-02-27T09:45:05.855Z,186.33
2023-02-27T09:46:03.452Z,192.85
2023-02-27T09:47:04.006Z,190.88
2023-02-27T09:48:03.221Z,192.49
2023-02-27T09:49:02.209Z,192.07
2023-02-27T09:50:02.203Z,200.64
2023-02-27T09:51:03.207Z,204.32
2023-02-27T09:52:02.183Z,206.20
2023-02-27T09:53:02.188Z,210.66
2023-02-27T09:54:03.182Z,211.02
2023-02-27T09:55:03.178Z,212.26
2023-02-27T09:56:03.204Z,214.69
2023-02-27T09:57:03.154Z,216.15
2023-02-27T09:58:03.499Z,216.30
2023-02-27T09:59:02.130Z,218.07
2023-02-27T10:00:02.140Z,221.05
2023-02-27T10:01:02.121Z,220.24
2023-02-27T10:02:02.178Z,224.40
2023-02-27T10:03:02.244Z,224.97
2023-02-27T10:04:03.225Z,223.50
2023-02-27T10:05:03.266Z,225.49
2023-02-27T10:06:02.354Z,224.94
2023-02-27T10:07:03.401Z,228.89
2023-02-27T10:08:03.515Z,228.30
2023-02-27T10:09:03.480Z,228.92
2023-02-27T10:10:03.514Z,229.93
2023-02-27T10:11:03.563Z,230.57
2023-02-27T10:12:04.138Z,231.28
2023-02-27T10:13:03.654Z,234.15
2023-02-27T10:14:03.670Z,233.93
2023-02-27T10:15:02.687Z,239.73
2023-02-27T10:16:02.730Z,239.30
2023-02-27T10:17:03.836Z,239.44
2023-02-27T10:18:13.009Z,240.99
2023-02-27T10:19:03.784Z,241.15
2023-02-27T10:20:03.788Z,241.90
2023-02-27T10:21:03.765Z,243.24
2023-02-27T10:22:03.766Z,245.63
2023-02-27T10:23:03.746Z,245.90
2023-02-27T10:24:05.583Z,246.77
2023-02-27T10:25:03.754Z,246.98
2023-02-27T10:26:02.734Z,247.44
2023-02-27T10:27:03.734Z,248.79
2023-02-27T10:28:02.764Z,251.92
2023-02-27T10:29:02.718Z,254.68
2023-02-27T10:30:03.716Z,250.00
2023-02-27T10:31:03.780Z,246.83
2023-02-27T10:32:03.783Z,248.37
2023-02-27T10:33:02.692Z,248.38
2023-02-27T10:34:02.719Z,249.71
2023-02-27T10:35:03.670Z,247.52
2023-02-27T10:36:03.837Z,250.67
2023-02-27T10:37:02.657Z,245.38
2023-02-27T10:38:03.651Z,244.04
2023-02-27T10:39:02.674Z,244.21
2023-02-27T10:40:02.691Z,246.79
2023-02-27T10:41:03.642Z,247.22
2023-02-27T10:42:03.632Z,249.30
2023-02-27T10:43:06.111Z,250.00
2023-02-27T10:44:03.691Z,249.55
2023-02-27T10:45:03.659Z,250.30
2023-02-27T10:46:03.665Z,250.60
2023-02-27T10:47:03.605Z,253.42
2023-02-27T10:48:03.589Z,253.75
2023-02-27T10:49:04.039Z,247.00
2023-02-27T10:50:03.568Z,240.85
2023-02-27T10:51:03.595Z,244.28
2023-02-27T10:52:03.575Z,245.79
2023-02-27T10:53:02.540Z,241.08
2023-02-27T10:54:03.553Z,244.29
2023-02-27T10:55:03.558Z,245.27
2023-02-27T10:56:03.605Z,244.82
2023-02-27T10:57:03.522Z,243.69
2023-02-27T10:58:03.511Z,245.84
2023-02-27T10:59:03.507Z,248.71
2023-02-27T11:00:02.532Z,244.21
2023-02-27T11:01:03.479Z,249.06
2023-02-27T11:02:02.478Z,248.89
2023-02-27T11:03:03.459Z,248.33
2023-02-27T11:04:03.453Z,243.61
2023-02-27T11:05:02.456Z,248.07
2023-02-27T11:06:03.455Z,244.02
2023-02-27T11:07:02.424Z,249.07
2023-02-27T11:08:03.435Z,246.66
2023-02-27T11:09:03.428Z,245.01
2023-02-27T11:10:03.418Z,246.87
2023-02-27T11:11:03.413Z,248.32
2023-02-27T11:12:03.401Z,247.27
2023-02-27T11:13:03.393Z,245.35
2023-02-27T11:14:03.398Z,248.79
2023-02-27T11:15:03.379Z,245.48
2023-02-27T11:16:03.578Z,246.54
2023-02-27T11:17:03.380Z,247.08
2023-02-27T11:18:02.353Z,246.34
2023-02-27T11:19:03.347Z,248.64
2023-02-27T11:20:03.339Z,248.90
2023-02-27T11:21:03.349Z,244.52
2023-02-27T11:22:03.325Z,244.08
2023-02-27T11:23:03.333Z,243.95
2023-02-27T11:24:03.367Z,246.58
2023-02-27T11:25:04.298Z,247.97
2023-02-27T11:26:03.505Z,249.31
2023-02-27T11:27:03.569Z,245.95
2023-02-27T11:28:03.635Z,245.98
2023-02-27T11:29:02.703Z,244.69
2023-02-27T11:30:03.755Z,247.73
2023-02-27T11:31:03.895Z,246.58
2023-02-27T11:32:03.925Z,251.85
2023-02-27T11:33:02.945Z,245.43
2023-02-27T11:34:03.020Z,246.40
2023-02-27T11:35:04.071Z,244.91
2023-02-27T11:36:04.134Z,236.58
2023-02-27T11:37:04.092Z,220.65
2023-02-27T11:38:03.157Z,195.48
2023-02-27T11:39:04.186Z,201.25
2023-02-27T11:40:04.215Z,202.98
2023-02-27T11:41:03.286Z,190.68
2023-02-27T11:42:04.308Z,186.18
2023-02-27T11:43:04.374Z,181.92
2023-02-27T11:44:04.540Z,180.05
2023-02-27T11:45:04.458Z,182.22
2023-02-27T11:46:36.689Z,177.30
2023-02-27T11:47:04.504Z,177.43
2023-02-27T11:48:03.529Z,177.73
2023-02-27T11:49:03.469Z,176.12
2023-02-27T11:50:04.473Z,173.84
2023-02-27T11:51:04.456Z,170.30
2023-02-27T11:52:04.453Z,164.97
2023-02-27T11:53:03.450Z,159.79
2023-02-27T11:54:03.442Z,152.16
2023-02-27T11:55:04.425Z,156.10
2023-02-27T11:56:04.422Z,153.30
2023-02-27T11:57:03.427Z,139.66
2023-02-27T11:58:04.414Z,147.26
2023-02-27T11:59:04.395Z,144.73
2023-02-27T12:00:04.393Z,142.30
2023-02-27T12:01:04.378Z,142.61
2023-02-27T12:02:04.377Z,139.46
2023-02-27T12:03:04.405Z,133.93
2023-02-27T12:04:03.446Z,133.32
2023-02-27T12:05:04.358Z,131.83
2023-02-27T12:06:04.346Z,131.20
2023-02-27T12:07:04.344Z,129.92
2023-02-27T12:08:04.343Z,128.91
2023-02-27T12:09:04.360Z,130.20
2023-02-27T12:10:04.338Z,128.71
2023-02-27T12:11:14.836Z,127.19
2023-02-27T12:12:04.305Z,127.29
2023-02-27T12:13:04.311Z,126.42
2023-02-27T12:14:04.293Z,126.03
2023-02-27T12:15:04.418Z,124.61
2023-02-27T12:16:04.382Z,124.16
2023-02-27T12:17:04.275Z,124.43
2023-02-27T12:18:03.257Z,126.03
2023-02-27T12:19:04.276Z,129.19
2023-02-27T12:20:04.271Z,134.52
2023-02-27T12:21:04.248Z,143.86
2023-02-27T12:22:03.231Z,145.66
2023-02-27T12:23:04.222Z,139.22
2023-02-27T12:24:04.221Z,142.14
2023-02-27T12:25:04.209Z,146.56
2023-02-27T12:26:03.206Z,147.11
2023-02-27T12:27:04.192Z,149.52
2023-02-27T12:28:04.181Z,147.55
2023-02-27T12:29:04.224Z,150.20
2023-02-27T12:30:04.174Z,157.52
2023-02-27T12:31:04.166Z,156.56
2023-02-27T12:32:04.286Z,155.33
2023-02-27T12:33:04.145Z,157.79
2023-02-27T12:34:04.154Z,162.63
2023-02-27T12:35:04.134Z,159.53
2023-02-27T12:36:04.233Z,164.48
2023-02-27T12:37:04.138Z,168.77
2023-02-27T12:38:03.230Z,168.69
2023-02-27T12:39:04.124Z,164.04
2023-02-27T12:40:03.113Z,170.23
2023-02-27T12:41:03.122Z,168.98
2023-02-27T12:42:04.125Z,170.25
2023-02-27T12:43:04.133Z,170.02
2023-02-27T12:44:04.176Z,172.69
2023-02-27T12:45:04.186Z,169.72
2023-02-27T12:46:04.248Z,167.82
2023-02-27T12:47:04.271Z,168.61
2023-02-27T12:48:04.314Z,169.59
2023-02-27T12:49:04.364Z,168.12
2023-02-27T12:50:04.376Z,168.31
2023-02-27T12:51:04.410Z,166.04
2023-02-27T12:52:04.516Z,164.87
2023-02-27T12:53:04.522Z,162.25
2023-02-27T12:54:04.593Z,164.13
2023-02-27T12:55:04.612Z,161.43
2023-02-27T12:56:03.658Z,161.86
2023-02-27T12:57:04.714Z,159.34
2023-02-27T12:58:04.769Z,160.70
2023-02-27T12:59:04.843Z,159.28
2023-02-27T13:00:04.882Z,157.60